sensor_id;sensor_type;location;lat;lon;timestamp;P1;durP1;ratioP1;P2;durP2;ratioP2
64982;SDS011;69426;28.138;-15.436;2023-10-31T00:00:04;8.07;;;3.20;;
64982;SDS011;69426;28.138;-15.436;2023-10-31T00:02:30;6.35;;;3.30;;
64982;SDS011;69426;28.138;-15.436;2023-10-31T00:04:55;6.53;;;3.23;;
64982;SDS011;69426;28.138;-15.436;2023-10-31T00:07:20;5.87;;;3.23;;
64982;SDS011;69426;28.138;-15.436;2023-10-31T00:09:46;7.00;;;3.22;;
64982;SDS011;69426;28.138;-15.436;2023-10-31T00:12:11;6.17;;;3.50;;
64982;SDS011;69426;28.138;-15.436;2023-10-31T00:14:36;5.57;;;3.23;;
64982;SDS011;69426;28.138;-15.436;2023-10-31T00:17:01;5.40;;;3.00;;
64982;SDS011;69426;28.138;-15.436;2023-10-31T00:19:27;5.22;;;3.38;;
64982;SDS011;69426;28.138;-15.436;2023-10-31T00:21:52;5.93;;;2.97;;
64982;SDS011;69426;28.138;-15.436;2023-10-31T00:24:17;5.82;;;3.20;;
64982;SDS011;69426;28.138;-15.436;2023-10-31T00:26:43;5.13;;;2.87;;
64982;SDS011;69426;28.138;-15.436;2023-10-31T00:29:08;5.90;;;3.20;;
64982;SDS011;69426;28.138;-15.436;2023-10-31T00:31:33;5.30;;;3.17;;
64982;SDS011;69426;28.138;-15.436;2023-10-31T00:34:00;6.32;;;3.10;;
64982;SDS011;69426;28.138;-15.436;2023-10-31T00:36:25;8.10;;;3.22;;
64982;SDS011;69426;28.138;-15.436;2023-10-31T00:38:50;5.03;;;2.83;;
64982;SDS011;69426;28.138;-15.436;2023-10-31T00:41:16;5.75;;;3.30;;
64982;SDS011;69426;28.138;-15.436;2023-10-31T00:43:41;8.40;;;3.17;;
64982;SDS011;69426;28.138;-15.436;2023-10-31T00:46:06;5.40;;;3.00;;
64982;SDS011;69426;28.138;-15.436;2023-10-31T00:48:31;6.03;;;3.17;;
64982;SDS011;69426;28.138;-15.436;2023-10-31T00:51:01;5.25;;;3.00;;
64982;SDS011;69426;28.138;-15.436;2023-10-31T00:53:27;4.93;;;2.88;;
64982;SDS011;69426;28.138;-15.436;2023-10-31T00:55:52;5.03;;;3.07;;
64982;SDS011;69426;28.138;-15.436;2023-10-31T00:58:17;5.40;;;3.17;;
64982;SDS011;69426;28.138;-15.436;2023-10-31T01:00:42;5.93;;;3.13;;
64982;SDS011;69426;28.138;-15.436;2023-10-31T01:03:08;6.63;;;3.23;;
64982;SDS011;69426;28.138;-15.436;2023-10-31T01:05:33;5.60;;;3.20;;
64982;SDS011;69426;28.138;-15.436;2023-10-31T01:07:58;4.40;;;2.80;;
64982;SDS011;69426;28.138;-15.436;2023-10-31T01:10:23;6.07;;;3.10;;
64982;SDS011;69426;28.138;-15.436;2023-10-31T01:12:49;5.18;;;2.90;;
64982;SDS011;69426;28.138;-15.436;2023-10-31T01:15:14;4.13;;;2.50;;
64982;SDS011;69426;28.138;-15.436;2023-10-31T01:17:39;5.97;;;3.40;;
64982;SDS011;69426;28.138;-15.436;2023-10-31T01:20:05;6.60;;;3.30;;
64982;SDS011;69426;28.138;-15.436;2023-10-31T01:22:31;6.00;;;2.97;;
64982;SDS011;69426;28.138;-15.436;2023-10-31T01:24:56;4.73;;;3.03;;
64982;SDS011;69426;28.138;-15.436;2023-10-31T01:27:21;4.57;;;2.90;;
64982;SDS011;69426;28.138;-15.436;2023-10-31T01:29:47;5.00;;;3.23;;
64982;SDS011;69426;28.138;-15.436;2023-10-31T01:32:12;4.93;;;3.00;;
64982;SDS011;69426;28.138;-15.436;2023-10-31T01:34:37;4.83;;;3.00;;
64982;SDS011;69426;28.138;-15.436;2023-10-31T01:37:02;5.33;;;3.17;;
64982;SDS011;69426;28.138;-15.436;2023-10-31T01:39:27;6.13;;;3.20;;
64982;SDS011;69426;28.138;-15.436;2023-10-31T01:41:53;6.37;;;3.17;;
64982;SDS011;69426;28.138;-15.436;2023-10-31T01:44:19;5.43;;;3.00;;
64982;SDS011;69426;28.138;-15.436;2023-10-31T01:46:45;5.60;;;3.17;;
64982;SDS011;69426;28.138;-15.436;2023-10-31T01:49:10;5.67;;;2.83;;
64982;SDS011;69426;28.138;-15.436;2023-10-31T01:51:35;5.88;;;3.10;;
64982;SDS011;69426;28.138;-15.436;2023-10-31T01:54:00;4.87;;;3.33;;
64982;SDS011;69426;28.138;-15.436;2023-10-31T01:56:26;5.47;;;3.03;;
64982;SDS011;69426;28.138;-15.436;2023-10-31T01:58:51;7.53;;;3.00;;
64982;SDS011;69426;28.138;-15.436;2023-10-31T02:01:17;6.13;;;2.90;;
64982;SDS011;69426;28.138;-15.436;2023-10-31T02:03:42;4.47;;;3.00;;
64982;SDS011;69426;28.138;-15.436;2023-10-31T02:06:08;4.88;;;2.90;;
64982;SDS011;69426;28.138;-15.436;2023-10-31T02:08:33;5.32;;;3.00;;
64982;SDS011;69426;28.138;-15.436;2023-10-31T02:10:59;4.68;;;3.20;;
64982;SDS011;69426;28.138;-15.436;2023-10-31T02:13:24;6.55;;;3.15;;
64982;SDS011;69426;28.138;-15.436;2023-10-31T02:15:49;8.17;;;3.50;;
64982;SDS011;69426;28.138;-15.436;2023-10-31T02:18:15;7.70;;;3.37;;
64982;SDS011;69426;28.138;-15.436;2023-10-31T02:20:40;8.03;;;3.13;;
64982;SDS011;69426;28.138;-15.436;2023-10-31T02:23:05;6.57;;;2.93;;
64982;SDS011;69426;28.138;-15.436;2023-10-31T02:25:31;5.57;;;2.53;;
64982;SDS011;69426;28.138;-15.436;2023-10-31T02:27:56;6.22;;;2.97;;
64982;SDS011;69426;28.138;-15.436;2023-10-31T02:30:21;4.38;;;2.80;;
64982;SDS011;69426;28.138;-15.436;2023-10-31T02:32:47;5.40;;;2.88;;
64982;SDS011;69426;28.138;-15.436;2023-10-31T02:35:13;5.88;;;2.70;;
64982;SDS011;69426;28.138;-15.436;2023-10-31T02:37:39;4.38;;;2.70;;
64982;SDS011;69426;28.138;-15.436;2023-10-31T02:40:04;6.10;;;3.10;;
64982;SDS011;69426;28.138;-15.436;2023-10-31T02:42:29;5.05;;;2.70;;
64982;SDS011;69426;28.138;-15.436;2023-10-31T02:44:55;4.55;;;2.78;;
64982;SDS011;69426;28.138;-15.436;2023-10-31T02:47:21;5.80;;;2.83;;
64982;SDS011;69426;28.138;-15.436;2023-10-31T02:49:46;6.67;;;2.90;;
64982;SDS011;69426;28.138;-15.436;2023-10-31T02:52:11;5.60;;;2.90;;
64982;SDS011;69426;28.138;-15.436;2023-10-31T02:54:37;6.63;;;3.00;;
64982;SDS011;69426;28.138;-15.436;2023-10-31T02:57:02;5.53;;;3.28;;
64982;SDS011;69426;28.138;-15.436;2023-10-31T02:59:27;6.00;;;2.95;;
64982;SDS011;69426;28.138;-15.436;2023-10-31T03:01:53;4.53;;;2.90;;
64982;SDS011;69426;28.138;-15.436;2023-10-31T03:04:18;6.55;;;3.00;;
64982;SDS011;69426;28.138;-15.436;2023-10-31T03:06:44;5.65;;;3.08;;
64982;SDS011;69426;28.138;-15.436;2023-10-31T03:09:09;5.13;;;3.33;;
64982;SDS011;69426;28.138;-15.436;2023-10-31T03:11:35;5.17;;;2.87;;
64982;SDS011;69426;28.138;-15.436;2023-10-31T03:14:00;5.43;;;2.95;;
64982;SDS011;69426;28.138;-15.436;2023-10-31T03:16:25;5.55;;;3.22;;
64982;SDS011;69426;28.138;-15.436;2023-10-31T03:18:51;6.07;;;2.60;;
64982;SDS011;69426;28.138;-15.436;2023-10-31T03:21:16;5.38;;;3.13;;
64982;SDS011;69426;28.138;-15.436;2023-10-31T03:23:43;8.02;;;3.03;;
64982;SDS011;69426;28.138;-15.436;2023-10-31T03:26:08;5.03;;;2.80;;
64982;SDS011;69426;28.138;-15.436;2023-10-31T03:28:34;4.53;;;2.60;;
64982;SDS011;69426;28.138;-15.436;2023-10-31T03:30:59;6.03;;;3.00;;
64982;SDS011;69426;28.138;-15.436;2023-10-31T03:33:24;4.83;;;2.70;;
64982;SDS011;69426;28.138;-15.436;2023-10-31T03:35:49;5.20;;;2.70;;
64982;SDS011;69426;28.138;-15.436;2023-10-31T03:38:15;4.80;;;2.80;;
64982;SDS011;69426;28.138;-15.436;2023-10-31T03:40:40;4.40;;;2.60;;
64982;SDS011;69426;28.138;-15.436;2023-10-31T03:43:06;5.22;;;2.50;;
64982;SDS011;69426;28.138;-15.436;2023-10-31T03:45:31;5.83;;;2.80;;
64982;SDS011;69426;28.138;-15.436;2023-10-31T03:47:56;5.23;;;2.70;;
64982;SDS011;69426;28.138;-15.436;2023-10-31T03:50:22;4.80;;;2.78;;
64982;SDS011;69426;28.138;-15.436;2023-10-31T03:52:47;3.37;;;2.33;;
64982;SDS011;69426;28.138;-15.436;2023-10-31T03:55:12;4.63;;;2.90;;
64982;SDS011;69426;28.138;-15.436;2023-10-31T03:57:37;4.40;;;2.70;;
64982;SDS011;69426;28.138;-15.436;2023-10-31T04:00:03;5.17;;;2.57;;
64982;SDS011;69426;28.138;-15.436;2023-10-31T04:02:31;5.13;;;2.60;;
64982;SDS011;69426;28.138;-15.436;2023-10-31T04:04:57;4.82;;;2.90;;
64982;SDS011;69426;28.138;-15.436;2023-10-31T04:07:22;4.23;;;2.70;;
64982;SDS011;69426;28.138;-15.436;2023-10-31T04:09:47;4.47;;;2.60;;
64982;SDS011;69426;28.138;-15.436;2023-10-31T04:12:12;4.27;;;2.50;;
64982;SDS011;69426;28.138;-15.436;2023-10-31T04:14:38;3.90;;;2.50;;
64982;SDS011;69426;28.138;-15.436;2023-10-31T04:17:03;5.20;;;2.53;;
64982;SDS011;69426;28.138;-15.436;2023-10-31T04:19:29;5.47;;;3.22;;
64982;SDS011;69426;28.138;-15.436;2023-10-31T04:21:54;6.07;;;2.60;;
64982;SDS011;69426;28.138;-15.436;2023-10-31T04:24:19;3.97;;;2.38;;
64982;SDS011;69426;28.138;-15.436;2023-10-31T04:26:44;3.23;;;2.27;;
64982;SDS011;69426;28.138;-15.436;2023-10-31T04:29:10;4.30;;;2.60;;
64982;SDS011;69426;28.138;-15.436;2023-10-31T04:31:35;4.53;;;2.65;;
64982;SDS011;69426;28.138;-15.436;2023-10-31T04:34:00;6.07;;;2.67;;
64982;SDS011;69426;28.138;-15.436;2023-10-31T04:36:25;3.97;;;2.53;;
64982;SDS011;69426;28.138;-15.436;2023-10-31T04:38:51;3.40;;;2.33;;
64982;SDS011;69426;28.138;-15.436;2023-10-31T04:41:16;5.70;;;2.80;;
64982;SDS011;69426;28.138;-15.436;2023-10-31T04:43:41;3.60;;;2.57;;
64982;SDS011;69426;28.138;-15.436;2023-10-31T04:46:06;5.65;;;2.75;;
64982;SDS011;69426;28.138;-15.436;2023-10-31T04:48:32;5.70;;;2.20;;
64982;SDS011;69426;28.138;-15.436;2023-10-31T04:50:57;4.60;;;2.60;;
64982;SDS011;69426;28.138;-15.436;2023-10-31T04:53:22;4.70;;;2.67;;
64982;SDS011;69426;28.138;-15.436;2023-10-31T04:55:48;5.83;;;2.80;;
64982;SDS011;69426;28.138;-15.436;2023-10-31T04:58:13;3.73;;;2.40;;
64982;SDS011;69426;28.138;-15.436;2023-10-31T05:00:38;5.30;;;2.67;;
64982;SDS011;69426;28.138;-15.436;2023-10-31T05:03:03;3.73;;;2.40;;
64982;SDS011;69426;28.138;-15.436;2023-10-31T05:05:29;4.87;;;2.60;;
64982;SDS011;69426;28.138;-15.436;2023-10-31T05:07:54;4.13;;;2.60;;
64982;SDS011;69426;28.138;-15.436;2023-10-31T05:10:19;5.18;;;2.90;;
64982;SDS011;69426;28.138;-15.436;2023-10-31T05:12:45;3.80;;;2.50;;
64982;SDS011;69426;28.138;-15.436;2023-10-31T05:15:10;5.17;;;2.60;;
64982;SDS011;69426;28.138;-15.436;2023-10-31T05:17:36;5.60;;;2.50;;
64982;SDS011;69426;28.138;-15.436;2023-10-31T05:20:01;4.03;;;2.53;;
64982;SDS011;69426;28.138;-15.436;2023-10-31T05:22:26;4.93;;;2.63;;
64982;SDS011;69426;28.138;-15.436;2023-10-31T05:24:51;5.53;;;2.63;;
64982;SDS011;69426;28.138;-15.436;2023-10-31T05:27:16;5.13;;;2.40;;
64982;SDS011;69426;28.138;-15.436;2023-10-31T05:29:42;3.20;;;2.23;;
64982;SDS011;69426;28.138;-15.436;2023-10-31T05:32:07;6.10;;;2.40;;
64982;SDS011;69426;28.138;-15.436;2023-10-31T05:34:32;3.90;;;2.40;;
64982;SDS011;69426;28.138;-15.436;2023-10-31T05:36:57;3.13;;;2.10;;
64982;SDS011;69426;28.138;-15.436;2023-10-31T05:39:23;4.23;;;2.50;;
64982;SDS011;69426;28.138;-15.436;2023-10-31T05:41:48;3.90;;;2.53;;
64982;SDS011;69426;28.138;-15.436;2023-10-31T05:44:13;3.90;;;2.30;;
64982;SDS011;69426;28.138;-15.436;2023-10-31T05:46:38;4.63;;;2.60;;
64982;SDS011;69426;28.138;-15.436;2023-10-31T05:49:05;4.70;;;2.70;;
64982;SDS011;69426;28.138;-15.436;2023-10-31T05:51:31;3.70;;;2.60;;
64982;SDS011;69426;28.138;-15.436;2023-10-31T05:53:56;5.32;;;2.30;;
64982;SDS011;69426;28.138;-15.436;2023-10-31T05:56:21;3.90;;;2.30;;
64982;SDS011;69426;28.138;-15.436;2023-10-31T05:58:47;5.82;;;2.60;;
64982;SDS011;69426;28.138;-15.436;2023-10-31T06:01:12;4.60;;;2.30;;
64982;SDS011;69426;28.138;-15.436;2023-10-31T06:03:40;3.88;;;2.65;;
64982;SDS011;69426;28.138;-15.436;2023-10-31T06:06:06;4.28;;;2.60;;
64982;SDS011;69426;28.138;-15.436;2023-10-31T06:08:31;3.55;;;2.25;;
64982;SDS011;69426;28.138;-15.436;2023-10-31T06:10:56;3.35;;;2.10;;
64982;SDS011;69426;28.138;-15.436;2023-10-31T06:13:22;3.30;;;2.00;;
64982;SDS011;69426;28.138;-15.436;2023-10-31T06:15:47;3.03;;;2.10;;
64982;SDS011;69426;28.138;-15.436;2023-10-31T06:18:13;4.32;;;2.67;;
64982;SDS011;69426;28.138;-15.436;2023-10-31T06:20:38;5.33;;;2.50;;
64982;SDS011;69426;28.138;-15.436;2023-10-31T06:23:04;3.60;;;2.13;;
64982;SDS011;69426;28.138;-15.436;2023-10-31T06:25:30;7.80;;;2.67;;
64982;SDS011;69426;28.138;-15.436;2023-10-31T06:27:55;5.87;;;2.60;;
64982;SDS011;69426;28.138;-15.436;2023-10-31T06:30:20;4.95;;;2.78;;
64982;SDS011;69426;28.138;-15.436;2023-10-31T06:32:46;4.57;;;2.30;;
64982;SDS011;69426;28.138;-15.436;2023-10-31T06:35:11;3.38;;;2.28;;
64982;SDS011;69426;28.138;-15.436;2023-10-31T06:37:36;6.53;;;2.43;;
64982;SDS011;69426;28.138;-15.436;2023-10-31T06:40:02;3.30;;;2.43;;
64982;SDS011;69426;28.138;-15.436;2023-10-31T06:42:27;2.97;;;1.95;;
64982;SDS011;69426;28.138;-15.436;2023-10-31T06:44:53;6.00;;;2.53;;
64982;SDS011;69426;28.138;-15.436;2023-10-31T06:47:18;3.78;;;2.22;;
64982;SDS011;69426;28.138;-15.436;2023-10-31T06:49:44;3.53;;;2.20;;
64982;SDS011;69426;28.138;-15.436;2023-10-31T06:52:09;3.77;;;2.10;;
64982;SDS011;69426;28.138;-15.436;2023-10-31T06:54:34;2.90;;;1.97;;
64982;SDS011;69426;28.138;-15.436;2023-10-31T06:57:00;4.55;;;2.47;;
64982;SDS011;69426;28.138;-15.436;2023-10-31T06:59:26;5.47;;;2.40;;
64982;SDS011;69426;28.138;-15.436;2023-10-31T07:01:51;4.75;;;2.58;;
64982;SDS011;69426;28.138;-15.436;2023-10-31T07:04:17;4.63;;;2.75;;
64982;SDS011;69426;28.138;-15.436;2023-10-31T07:06:43;4.90;;;2.30;;
64982;SDS011;69426;28.138;-15.436;2023-10-31T07:09:08;6.50;;;2.27;;
64982;SDS011;69426;28.138;-15.436;2023-10-31T07:11:34;4.45;;;2.22;;
64982;SDS011;69426;28.138;-15.436;2023-10-31T07:14:03;4.28;;;2.40;;
64982;SDS011;69426;28.138;-15.436;2023-10-31T07:16:28;4.03;;;2.30;;
64982;SDS011;69426;28.138;-15.436;2023-10-31T07:18:54;5.95;;;2.30;;
64982;SDS011;69426;28.138;-15.436;2023-10-31T07:21:19;5.10;;;2.30;;
64982;SDS011;69426;28.138;-15.436;2023-10-31T07:23:45;5.70;;;2.95;;
64982;SDS011;69426;28.138;-15.436;2023-10-31T07:26:10;3.17;;;2.00;;
64982;SDS011;69426;28.138;-15.436;2023-10-31T07:28:36;5.90;;;2.30;;
64982;SDS011;69426;28.138;-15.436;2023-10-31T07:31:01;4.03;;;2.20;;
64982;SDS011;69426;28.138;-15.436;2023-10-31T07:33:26;5.00;;;2.20;;
64982;SDS011;69426;28.138;-15.436;2023-10-31T07:35:51;3.50;;;2.00;;
64982;SDS011;69426;28.138;-15.436;2023-10-31T07:38:17;4.18;;;2.08;;
64982;SDS011;69426;28.138;-15.436;2023-10-31T07:40:43;3.95;;;1.92;;
64982;SDS011;69426;28.138;-15.436;2023-10-31T07:43:08;3.30;;;2.00;;
64982;SDS011;69426;28.138;-15.436;2023-10-31T07:45:33;3.80;;;1.80;;
64982;SDS011;69426;28.138;-15.436;2023-10-31T07:47:58;4.25;;;2.47;;
64982;SDS011;69426;28.138;-15.436;2023-10-31T07:50:24;3.67;;;2.20;;
64982;SDS011;69426;28.138;-15.436;2023-10-31T07:52:49;2.23;;;1.60;;
64982;SDS011;69426;28.138;-15.436;2023-10-31T07:55:14;4.65;;;2.05;;
64982;SDS011;69426;28.138;-15.436;2023-10-31T07:57:39;2.93;;;1.80;;
64982;SDS011;69426;28.138;-15.436;2023-10-31T08:00:08;3.83;;;1.97;;
64982;SDS011;69426;28.138;-15.436;2023-10-31T08:02:35;3.20;;;1.92;;
64982;SDS011;69426;28.138;-15.436;2023-10-31T08:05:01;5.95;;;2.40;;
64982;SDS011;69426;28.138;-15.436;2023-10-31T08:07:26;3.45;;;2.25;;
64982;SDS011;69426;28.138;-15.436;2023-10-31T08:09:55;6.45;;;2.90;;
64982;SDS011;69426;28.138;-15.436;2023-10-31T08:12:20;4.18;;;2.63;;
64982;SDS011;69426;28.138;-15.436;2023-10-31T08:14:45;3.73;;;2.17;;
64982;SDS011;69426;28.138;-15.436;2023-10-31T08:17:11;4.88;;;2.53;;
64982;SDS011;69426;28.138;-15.436;2023-10-31T08:19:36;8.33;;;2.67;;
64982;SDS011;69426;28.138;-15.436;2023-10-31T08:22:02;4.38;;;2.90;;
64982;SDS011;69426;28.138;-15.436;2023-10-31T08:24:27;3.60;;;2.20;;
64982;SDS011;69426;28.138;-15.436;2023-10-31T08:26:52;4.72;;;2.70;;
64982;SDS011;69426;28.138;-15.436;2023-10-31T08:29:18;5.03;;;2.23;;
64982;SDS011;69426;28.138;-15.436;2023-10-31T08:31:43;3.60;;;1.97;;
64982;SDS011;69426;28.138;-15.436;2023-10-31T08:34:09;4.15;;;1.90;;
64982;SDS011;69426;28.138;-15.436;2023-10-31T08:36:35;5.10;;;2.17;;
64982;SDS011;69426;28.138;-15.436;2023-10-31T08:39:00;4.30;;;2.30;;
64982;SDS011;69426;28.138;-15.436;2023-10-31T08:41:25;2.67;;;1.90;;
64982;SDS011;69426;28.138;-15.436;2023-10-31T08:43:51;4.87;;;2.30;;
64982;SDS011;69426;28.138;-15.436;2023-10-31T08:46:16;6.50;;;2.17;;
64982;SDS011;69426;28.138;-15.436;2023-10-31T08:48:41;3.63;;;2.20;;
64982;SDS011;69426;28.138;-15.436;2023-10-31T08:51:06;5.13;;;2.30;;
64982;SDS011;69426;28.138;-15.436;2023-10-31T08:53:32;3.30;;;2.00;;
64982;SDS011;69426;28.138;-15.436;2023-10-31T08:55:57;5.97;;;2.67;;
64982;SDS011;69426;28.138;-15.436;2023-10-31T08:58:22;5.50;;;2.20;;
64982;SDS011;69426;28.138;-15.436;2023-10-31T09:00:48;4.35;;;1.88;;
64982;SDS011;69426;28.138;-15.436;2023-10-31T09:03:13;3.17;;;1.75;;
64982;SDS011;69426;28.138;-15.436;2023-10-31T09:05:39;4.13;;;1.80;;
64982;SDS011;69426;28.138;-15.436;2023-10-31T09:08:04;6.97;;;1.98;;
64982;SDS011;69426;28.138;-15.436;2023-10-31T09:10:30;4.20;;;1.60;;
64982;SDS011;69426;28.138;-15.436;2023-10-31T09:12:55;2.57;;;1.50;;
64982;SDS011;69426;28.138;-15.436;2023-10-31T09:15:20;2.40;;;1.33;;
64982;SDS011;69426;28.138;-15.436;2023-10-31T09:17:46;4.60;;;1.40;;
64982;SDS011;69426;28.138;-15.436;2023-10-31T09:20:11;2.23;;;1.30;;
64982;SDS011;69426;28.138;-15.436;2023-10-31T09:22:37;2.40;;;1.30;;
64982;SDS011;69426;28.138;-15.436;2023-10-31T09:25:02;3.78;;;1.38;;
64982;SDS011;69426;28.138;-15.436;2023-10-31T09:27:28;2.80;;;1.38;;
64982;SDS011;69426;28.138;-15.436;2023-10-31T09:29:53;4.78;;;1.50;;
64982;SDS011;69426;28.138;-15.436;2023-10-31T09:32:18;3.50;;;1.40;;
64982;SDS011;69426;28.138;-15.436;2023-10-31T09:34:43;2.30;;;1.13;;
64982;SDS011;69426;28.138;-15.436;2023-10-31T09:37:09;3.27;;;1.57;;
64982;SDS011;69426;28.138;-15.436;2023-10-31T09:39:34;4.90;;;1.60;;
64982;SDS011;69426;28.138;-15.436;2023-10-31T09:41:59;4.23;;;2.10;;
64982;SDS011;69426;28.138;-15.436;2023-10-31T09:44:25;5.93;;;2.05;;
64982;SDS011;69426;28.138;-15.436;2023-10-31T09:46:51;3.43;;;1.90;;
64982;SDS011;69426;28.138;-15.436;2023-10-31T09:49:16;5.47;;;1.90;;
64982;SDS011;69426;28.138;-15.436;2023-10-31T09:51:42;4.20;;;2.00;;
64982;SDS011;69426;28.138;-15.436;2023-10-31T09:54:07;3.30;;;1.90;;
64982;SDS011;69426;28.138;-15.436;2023-10-31T09:56:33;3.58;;;1.90;;
64982;SDS011;69426;28.138;-15.436;2023-10-31T09:59:00;4.18;;;2.10;;
64982;SDS011;69426;28.138;-15.436;2023-10-31T10:01:25;5.00;;;2.15;;
64982;SDS011;69426;28.138;-15.436;2023-10-31T10:03:50;5.60;;;2.20;;
64982;SDS011;69426;28.138;-15.436;2023-10-31T10:06:16;5.32;;;2.38;;
64982;SDS011;69426;28.138;-15.436;2023-10-31T10:08:41;5.55;;;1.90;;
64982;SDS011;69426;28.138;-15.436;2023-10-31T10:11:07;5.00;;;2.08;;
64982;SDS011;69426;28.138;-15.436;2023-10-31T10:13:32;4.10;;;1.90;;
64982;SDS011;69426;28.138;-15.436;2023-10-31T10:15:58;3.10;;;1.83;;
64982;SDS011;69426;28.138;-15.436;2023-10-31T10:18:24;3.58;;;2.08;;
64982;SDS011;69426;28.138;-15.436;2023-10-31T10:20:57;3.67;;;1.80;;
64982;SDS011;69426;28.138;-15.436;2023-10-31T10:23:23;4.50;;;1.52;;
64982;SDS011;69426;28.138;-15.436;2023-10-31T10:25:49;4.05;;;2.03;;
64982;SDS011;69426;28.138;-15.436;2023-10-31T10:28:14;5.13;;;1.90;;
64982;SDS011;69426;28.138;-15.436;2023-10-31T10:30:39;4.13;;;2.00;;
64982;SDS011;69426;28.138;-15.436;2023-10-31T10:33:06;3.15;;;1.75;;
64982;SDS011;69426;28.138;-15.436;2023-10-31T10:35:31;3.67;;;1.80;;
64982;SDS011;69426;28.138;-15.436;2023-10-31T10:37:56;4.03;;;1.70;;
64982;SDS011;69426;28.138;-15.436;2023-10-31T10:40:23;4.53;;;2.15;;
64982;SDS011;69426;28.138;-15.436;2023-10-31T10:42:49;3.95;;;1.90;;
64982;SDS011;69426;28.138;-15.436;2023-10-31T10:45:16;4.65;;;1.92;;
64982;SDS011;69426;28.138;-15.436;2023-10-31T10:47:43;3.03;;;1.90;;
64982;SDS011;69426;28.138;-15.436;2023-10-31T10:50:10;3.50;;;1.83;;
64982;SDS011;69426;28.138;-15.436;2023-10-31T10:52:54;4.35;;;2.20;;
64982;SDS011;69426;28.138;-15.436;2023-10-31T10:55:25;4.93;;;2.13;;
64982;SDS011;69426;28.138;-15.436;2023-10-31T11:00:19;4.95;;;1.90;;
64982;SDS011;69426;28.138;-15.436;2023-10-31T11:02:49;4.97;;;1.95;;
64982;SDS011;69426;28.138;-15.436;2023-10-31T11:05:17;3.90;;;1.92;;
64982;SDS011;69426;28.138;-15.436;2023-10-31T11:07:43;3.53;;;1.92;;
64982;SDS011;69426;28.138;-15.436;2023-10-31T11:10:08;5.47;;;2.08;;
64982;SDS011;69426;28.138;-15.436;2023-10-31T11:12:34;6.20;;;2.33;;
64982;SDS011;69426;28.138;-15.436;2023-10-31T11:15:00;3.65;;;2.00;;
64982;SDS011;69426;28.138;-15.436;2023-10-31T11:17:28;4.10;;;1.80;;
64982;SDS011;69426;28.138;-15.436;2023-10-31T11:19:54;3.80;;;1.80;;
64982;SDS011;69426;28.138;-15.436;2023-10-31T11:22:20;4.13;;;2.05;;
64982;SDS011;69426;28.138;-15.436;2023-10-31T11:24:45;5.15;;;2.00;;
64982;SDS011;69426;28.138;-15.436;2023-10-31T11:27:10;3.47;;;1.77;;
64982;SDS011;69426;28.138;-15.436;2023-10-31T11:29:36;3.25;;;1.80;;
64982;SDS011;69426;28.138;-15.436;2023-10-31T11:32:01;5.82;;;2.03;;
64982;SDS011;69426;28.138;-15.436;2023-10-31T11:34:28;3.08;;;1.90;;
64982;SDS011;69426;28.138;-15.436;2023-10-31T11:36:56;4.72;;;1.95;;
64982;SDS011;69426;28.138;-15.436;2023-10-31T11:39:39;5.43;;;2.17;;
64982;SDS011;69426;28.138;-15.436;2023-10-31T11:42:04;5.00;;;2.27;;
64982;SDS011;69426;28.138;-15.436;2023-10-31T11:44:54;4.00;;;2.10;;
64982;SDS011;69426;28.138;-15.436;2023-10-31T11:47:19;4.25;;;2.22;;
64982;SDS011;69426;28.138;-15.436;2023-10-31T11:49:47;4.70;;;2.20;;
64982;SDS011;69426;28.138;-15.436;2023-10-31T11:52:15;4.60;;;1.80;;
64982;SDS011;69426;28.138;-15.436;2023-10-31T11:54:41;4.43;;;2.35;;
64982;SDS011;69426;28.138;-15.436;2023-10-31T11:57:06;3.92;;;2.20;;
64982;SDS011;69426;28.138;-15.436;2023-10-31T11:59:37;4.57;;;1.90;;
64982;SDS011;69426;28.138;-15.436;2023-10-31T12:02:12;3.28;;;1.60;;
64982;SDS011;69426;28.138;-15.436;2023-10-31T12:04:38;4.18;;;1.40;;
64982;SDS011;69426;28.138;-15.436;2023-10-31T12:07:04;3.42;;;1.45;;
64982;SDS011;69426;28.138;-15.436;2023-10-31T12:09:30;2.53;;;1.60;;
64982;SDS011;69426;28.138;-15.436;2023-10-31T12:11:55;2.50;;;1.50;;
64982;SDS011;69426;28.138;-15.436;2023-10-31T12:14:21;3.57;;;1.70;;
64982;SDS011;69426;28.138;-15.436;2023-10-31T12:16:46;4.50;;;1.85;;
64982;SDS011;69426;28.138;-15.436;2023-10-31T12:19:12;2.40;;;1.60;;
64982;SDS011;69426;28.138;-15.436;2023-10-31T12:21:44;2.67;;;1.42;;
64982;SDS011;69426;28.138;-15.436;2023-10-31T12:24:12;2.35;;;1.50;;
64982;SDS011;69426;28.138;-15.436;2023-10-31T12:26:38;3.58;;;1.73;;
64982;SDS011;69426;28.138;-15.436;2023-10-31T12:29:08;2.67;;;1.50;;
64982;SDS011;69426;28.138;-15.436;2023-10-31T12:31:33;2.60;;;1.63;;
64982;SDS011;69426;28.138;-15.436;2023-10-31T12:34:04;2.53;;;1.58;;
64982;SDS011;69426;28.138;-15.436;2023-10-31T12:36:29;4.03;;;1.70;;
64982;SDS011;69426;28.138;-15.436;2023-10-31T12:38:54;3.33;;;1.70;;
64982;SDS011;69426;28.138;-15.436;2023-10-31T12:41:19;6.50;;;1.80;;
64982;SDS011;69426;28.138;-15.436;2023-10-31T12:43:45;3.40;;;1.80;;
64982;SDS011;69426;28.138;-15.436;2023-10-31T12:46:23;3.10;;;1.63;;
64982;SDS011;69426;28.138;-15.436;2023-10-31T12:48:49;3.35;;;1.70;;
64982;SDS011;69426;28.138;-15.436;2023-10-31T12:51:14;4.93;;;1.87;;
64982;SDS011;69426;28.138;-15.436;2023-10-31T12:53:39;3.17;;;1.70;;
64982;SDS011;69426;28.138;-15.436;2023-10-31T12:56:05;7.10;;;2.10;;
64982;SDS011;69426;28.138;-15.436;2023-10-31T12:58:30;3.28;;;1.75;;
64982;SDS011;69426;28.138;-15.436;2023-10-31T13:00:56;3.73;;;1.90;;
64982;SDS011;69426;28.138;-15.436;2023-10-31T13:03:21;5.25;;;1.92;;
64982;SDS011;69426;28.138;-15.436;2023-10-31T13:05:47;2.85;;;1.88;;
64982;SDS011;69426;28.138;-15.436;2023-10-31T13:08:13;3.53;;;1.93;;
64982;SDS011;69426;28.138;-15.436;2023-10-31T13:10:39;3.40;;;2.00;;
64982;SDS011;69426;28.138;-15.436;2023-10-31T13:13:04;3.05;;;1.98;;
64982;SDS011;69426;28.138;-15.436;2023-10-31T13:15:29;6.20;;;2.40;;
64982;SDS011;69426;28.138;-15.436;2023-10-31T13:17:54;4.70;;;2.40;;
64982;SDS011;69426;28.138;-15.436;2023-10-31T13:20:20;4.03;;;2.35;;
64982;SDS011;69426;28.138;-15.436;2023-10-31T13:22:46;4.03;;;2.30;;
64982;SDS011;69426;28.138;-15.436;2023-10-31T13:25:12;5.40;;;2.53;;
64982;SDS011;69426;28.138;-15.436;2023-10-31T13:27:38;5.57;;;2.60;;
64982;SDS011;69426;28.138;-15.436;2023-10-31T13:30:05;5.68;;;2.55;;
64982;SDS011;69426;28.138;-15.436;2023-10-31T13:32:31;4.75;;;2.30;;
64982;SDS011;69426;28.138;-15.436;2023-10-31T13:34:56;4.80;;;2.80;;
64982;SDS011;69426;28.138;-15.436;2023-10-31T13:37:21;4.33;;;2.30;;
64982;SDS011;69426;28.138;-15.436;2023-10-31T13:39:47;4.17;;;2.40;;
64982;SDS011;69426;28.138;-15.436;2023-10-31T13:42:12;7.20;;;2.80;;
64982;SDS011;69426;28.138;-15.436;2023-10-31T13:44:39;7.88;;;2.55;;
64982;SDS011;69426;28.138;-15.436;2023-10-31T13:47:04;3.95;;;2.72;;
64982;SDS011;69426;28.138;-15.436;2023-10-31T13:49:30;26.98;;;16.85;;
64982;SDS011;69426;28.138;-15.436;2023-10-31T13:51:55;33.87;;;17.03;;
64982;SDS011;69426;28.138;-15.436;2023-10-31T13:54:20;27.70;;;17.73;;
64982;SDS011;69426;28.138;-15.436;2023-10-31T13:56:46;28.33;;;16.92;;
64982;SDS011;69426;28.138;-15.436;2023-10-31T13:59:11;28.60;;;17.55;;
64982;SDS011;69426;28.138;-15.436;2023-10-31T14:01:37;23.75;;;15.60;;
64982;SDS011;69426;28.138;-15.436;2023-10-31T14:04:02;29.80;;;14.88;;
64982;SDS011;69426;28.138;-15.436;2023-10-31T14:06:27;21.07;;;13.43;;
64982;SDS011;69426;28.138;-15.436;2023-10-31T14:08:55;22.40;;;13.02;;
64982;SDS011;69426;28.138;-15.436;2023-10-31T14:11:21;23.20;;;11.50;;
64982;SDS011;69426;28.138;-15.436;2023-10-31T14:13:46;18.17;;;10.57;;